• Join FlightAware (Why Join?)
  • Login
  • US Flag 
09:51PM EST


 

Airport Tracker/Info


-or-


 

Live Flight TrackerFlight Track Log ✈ GJS3649 ✈ 01-Jul-2013 ✈ KORD - KRDU

Flight Track Log - Related Links

Times and Time Zones

All times are in EDT time to prevent confusion due to time zone crossing. See the GJS3649 flight status page for this flight to view local times or setup timezone preferences in your user account.

Time Position Orientation Groundspeed Altitude Reporting Facility
EDT Latitude Longitude Course Direction KTS MPH feet Rate Location/Type
10:44PM 41.9500 -87.8667 180° South 225 259 2,700  Level Chicago TRACON
10:45PM 41.9006 -87.8583 173° South 244 281 4,000 2,520 Climbing Chicago Center
10:46PM 41.8172 -87.8081 156° South 269 310 7,200 3,000 Climbing Chicago Center
10:47PM 41.7447 -87.7647 156° South 284 327 10,100 2,640 Climbing Chicago Center
10:48PM 41.6700 -87.7197 156° South 293 337 12,600 2,340 Climbing Chicago Center
10:49PM 41.5919 -87.6725 156° South 305 351 14,900 1,920 Climbing Chicago Center
10:50PM 41.5754 -87.2093 180° South  Level Estimated
10:50PM 41.5108 -87.6231 155° Southeast 316 364 16,600  Level Chicago Center
10:51PM 41.4178 -87.5719 158° South 353 406 17,800 1,500 Climbing Chicago Center
10:52PM 41.3125 -87.5528 172° South 378 435 19,700 1,740 Climbing Chicago Center
10:53PM 41.2056 -87.5344 173° South 384 442 21,400 1,440 Climbing Chicago Center
10:54PM 41.0961 -87.5058 169° South 395 455 22,700 1,140 Climbing Chicago Center
10:55PM 40.9847 -87.4750 168° South 406 467 23,800 1,020 Climbing Chicago Center
10:56PM 40.8706 -87.4442 168° South 415 478 24,800 1,080 Climbing Chicago Center
10:57PM 40.7281 -87.4083 169° South 433 498 26,000 1,020 Climbing Chicago Center
10:58PM 40.6106 -87.3767 168° South 433 498 27,000 960 Climbing Chicago Center
10:59PM 40.4903 -87.3458 169° South 438 504 28,000 960 Climbing Chicago Center
11:00PM 40.3742 -87.2997 163° South 445 512 29,000 1,140 Climbing Chicago Center
11:01PM 40.2594 -87.2461 160° South 441 507 30,400 1,140 Climbing Chicago Center
11:02PM 40.1492 -87.1908 159° South 429 494 31,400 840 Climbing Chicago Center
11:03PM 40.0339 -87.1400 161° South 434 499 32,100 780 Climbing Indianapolis Center
11:04PM 39.9258 -87.0656 152° Southeast 445 512 32,900 780 Climbing Indianapolis Center
11:05PM 39.8231 -86.9786 147° Southeast 445 512 33,800 840 Climbing Indianapolis Center
11:06PM 39.7211 -86.8933 147° Southeast 440 506 34,700 840 Climbing Indianapolis Center
11:07PM 39.6186 -86.8078 147° Southeast 442 509 35,600 780 Climbing Indianapolis Center
11:08PM 39.5183 -86.7250 148° Southeast 436 502 36,400 720 Climbing Indianapolis Center
11:09PM 39.4189 -86.6422 147° Southeast 431 496 37,100 720 Climbing Indianapolis Center
11:10PM 39.3008 -86.5442 147° Southeast 427 491 37,900 660 Climbing Indianapolis Center
11:11PM 39.2028 -86.4636 148° Southeast 422 486 38,500 540 Climbing Indianapolis Center
11:12PM 39.1053 -86.3836 148° Southeast 421 484 39,000 240 Climbing Indianapolis Center
11:13PM 39.0089 -86.3047 148° Southeast 414 476 39,000  Level Indianapolis Center
11:14PM 38.9106 -86.2250 148° Southeast 419 482 39,000  Level Indianapolis Center
11:15PM 38.8181 -86.1497 148° Southeast 422 486 39,000  Level Indianapolis Center
11:16PM 38.7186 -86.0686 148° Southeast 420 483 39,000  Level Indianapolis Center
11:17PM 38.6194 -85.9889 148° Southeast 417 480 39,000 -240 Level Indianapolis Center
11:18PM 38.5083 -85.8717 140° Southeast 439 505 38,600 -720 Descending Indianapolis Center
11:20PM 38.4639 -85.7189 110° East 464 534 37,600 -840 Descending Indianapolis Center
11:21PM 38.4339 -85.5561 103° East 471 542 37,000 -300 Descending Indianapolis Center
11:22PM 38.4078 -85.3942 102° East 468 539 37,000  Level Indianapolis Center
11:23PM 38.3794 -85.2331 103° East 464 534 37,000  Level Indianapolis Center
11:24PM 38.3508 -85.0675 102° East 463 533 37,000  Level Indianapolis Center
11:25PM 38.3206 -84.9083 104° East 462 532 37,000  Level Indianapolis Center
11:26PM 38.2925 -84.7492 103° East 461 531 37,000  Level Indianapolis Center
11:27PM 38.2633 -84.5881 103° East 466 536 37,000  Level Indianapolis Center
11:28PM 38.2350 -84.4269 103° East 468 539 37,000  Level Indianapolis Center
11:29PM 38.2039 -84.2667 104° East 467 537 37,000  Level Indianapolis Center
11:30PM 38.1744 -84.1081 103° East 462 532 37,000  Level Indianapolis Center
11:31PM 38.1450 -83.9483 103° East 463 533 37,000  Level Indianapolis Center
11:32PM 38.1147 -83.7886 103° East 463 533 37,000  Level Indianapolis Center
11:33PM 38.0844 -83.6311 104° East 459 528 37,000  Level Indianapolis Center
11:34PM 38.0539 -83.4733 104° East 460 529 37,000  Level Indianapolis Center
11:35PM 38.0231 -83.3175 104° East 456 525 37,000  Level Indianapolis Center
11:36PM 37.9925 -83.1575 104° East 461 531 37,000  Level Indianapolis Center
11:37PM 37.9561 -82.9725 104° East 461 531 37,000  Level Indianapolis Center
11:38PM 37.9258 -82.8153 104° East 459 528 37,000  Level Indianapolis Center
11:39PM 37.8944 -82.6597 104° East 455 524 37,000  Level Indianapolis Center
11:40PM 37.8625 -82.5028 104° East 457 526 37,000  Level Indianapolis Center
11:41PM 37.8294 -82.3439 105° East 467 537 37,000  Level Indianapolis Center
11:42PM 37.7975 -82.1858 104° East 463 533 37,000  Level Indianapolis Center
11:43PM 37.7664 -82.0333 104° East 452 520 37,000  Level Indianapolis Center
11:44PM 37.7350 -81.8756 104° East 459 528 37,000  Level Indianapolis Center
11:45PM 37.7011 -81.7175 105° East 464 534 37,000  Level Indianapolis Center
11:46PM 37.6683 -81.5606 105° East 462 532 37,000  Level Indianapolis Center
11:47PM 37.6356 -81.4061 105° East 461 531 37,000  Level Indianapolis Center
11:48PM 37.6019 -81.2519 105° East 467 537 37,000  Level Indianapolis Center
11:49PM 37.5617 -81.0681 105° East 467 537 37,000  Level Indianapolis Center
11:50PM 37.5283 -80.9136 105° East 469 540 37,000 -60 Level Indianapolis Center
11:51PM 37.4950 -80.7611 105° East 467 537 36,900 -840 Descending Indianapolis Center
11:52PM 37.4611 -80.6128 106° East 463 533 35,300 -1,620 Descending Washington Center
11:53PM 37.4256 -80.4642 107° East 458 527 33,700 -1,920 Descending Washington Center
11:54PM 37.3494 -80.3311 126° Southeast 432 497 31,500 -2,160 Descending Washington Center
11:55PM 37.2767 -80.2222 130° Southeast 421 484 29,500 -1,980 Descending Washington Center
11:56PM 37.2017 -80.1108 130° Southeast 415 478 27,600 -1,980 Descending Washington Center
11:57PM 37.1244 -79.9969 130° Southeast 415 478 25,600 -1,980 Descending Washington Center
11:58PM 37.0553 -79.8939 130° Southeast 424 488 23,700 -1,860 Descending Washington Center
11:59PM 36.9778 -79.7803 130° Southeast 424 488 21,900 -1,800 Descending Washington Center
12:00AM 36.8986 -79.6619 130° Southeast 419 482 20,100 -1,680 Descending Washington Center
12:01AM 36.8289 -79.5622 131° Southeast 403 464 18,700 -1,440 Descending Washington Center
12:02AM 36.7611 -79.4653 131° Southeast 386 444 17,300 -1,380 Descending Washington Center
12:03AM 36.6994 -79.3689 129° Southeast 367 422 15,900 -1,440 Descending Washington Center
12:04AM 36.6436 -79.2911 132° Southeast 358 412 14,400 -1,560 Descending Washington Center
12:05AM 36.5836 -79.2003 129° Southeast 346 398 12,900 -1,620 Descending Washington Center
12:06AM 36.5214 -79.1175 133° Southeast 304 350 11,300 -1,500 Descending Washington Center
12:07AM 36.4675 -79.0375 130° Southeast 304 350 10,000 -660 Descending Washington Center
12:08AM 36.4153 -78.9603 130° Southeast 294 338 10,000 -420 Level Washington Center
12:09AM 36.3586 -78.9011 140° Southeast 281 323 9,200 -720 Descending Washington Center
12:10AM 36.3056 -78.8550 145° Southeast 262 302 8,600 -660 Descending Washington Center
12:11AM 36.2486 -78.8036 144° Southeast 239 275 8,000 -720 Descending Washington Center
12:12AM 36.2019 -78.7581 142° Southeast 229 264 7,200 -1,080 Descending Washington Center
12:13AM 36.1589 -78.7203 145° Southeast 217 250 5,900 -1,320 Descending Washington Center
12:14AM 36.1081 -78.6719 142° Southeast 217 250 4,600 -1,320 Descending Washington Center
12:15AM 36.0650 -78.6394 149° Southeast 206 237 3,400 -1,140 Descending Washington Center
12:16AM 36.0086 -78.6503 189° South 167 192 2,200 -600 Descending Washington Center
12:17AM 35.9722 -78.6794 213° Southwest 161 185 2,200 -180 Level Washington Center
12:18AM 35.9464 -78.7119 226° Southwest 115 132 1,900 -480 Descending Washington Center
12:19AM 35.9225 -78.7444 228° Southwest 118 136 1,300 -720 Descending Washington Center
12:20AM 35.8944 -78.7792 225° Southwest 137 158 500 -840 Descending Washington Center
12:22AM 35.8776 -78.7875 112° Southeast  Level Estimated
12:29AM 35.8776 -78.7875 90° East  Level Estimated